Crescent Beach, Washington
Current Conditions -  °F | °C
As of 11:28 AM on Friday 21 Nov 2014 (Local Time) from KCLM Reporting Station
Light Rain Light Rain  
Wind Chill: 48°   Ceiling: 6000
Heat Index: 48°   Visibility: 3mi
Dew Point: 46°   Wind: 3mph
Humidity: 93%   Direction: NA
Pressure: 29.51"   Gusts: NA
Location:  48.1359°N, 123.734°W
Report Text: KCLM 211928Z AUTO VRB03KT 3SM -RA BR SCT004 SCT011 OVC060 09/08 A2951 RMK AO2 P0001 T00890078 $
Loading
Personal Weather Stations






























Interactive Weather Map New forecast layout! Learn more

10-Day Weather Forecast

Advertisements
Track Severe Weather on mobile